Time;durP1;ratioP1;P1;durP2;ratioP2;P2;SDS_P1;SDS_P2;PMS_P1;PMS_P2;Temp;Humidity;BMP_temperature;BMP_pressure;BME280_temperature;BME280_humidity;BME280_pressure;Samples;Min_cycle;Max_cycle;Signal;HPM_P1;HPM_P2
2021/10/24 00:00:35;;;;;;;10.48;6.72;;;3.30;99.90;;;;;;1921227;74;21076;-79
2021/10/24 00:03:02;;;;;;;11.60;6.85;;;3.30;99.90;;;;;;1889695;74;21522;-78
2021/10/24 00:05:28;;;;;;;15.88;7.03;;;3.20;99.90;;;;;;1918819;74;21080;-78
2021/10/24 00:07:54;;;;;;;14.03;6.50;;;3.20;99.90;;;;;;1918311;74;21069;-78
2021/10/24 00:10:20;;;;;;;11.68;6.87;;;3.20;99.90;;;;;;1918494;74;21550;-78
2021/10/24 00:12:46;;;;;;;10.43;6.05;;;3.10;99.90;;;;;;1925185;74;21040;-78
2021/10/24 00:15:12;;;;;;;11.38;6.67;;;3.10;99.90;;;;;;1923633;73;21545;-78
2021/10/24 00:17:39;;;;;;;10.95;6.60;;;3.10;99.90;;;;;;1879806;74;21547;-78
2021/10/24 00:20:05;;;;;;;16.37;6.70;;;3.20;99.90;;;;;;1928448;73;21475;-77
2021/10/24 00:22:31;;;;;;;12.45;7.17;;;3.20;99.90;;;;;;1923301;73;21075;-76
2021/10/24 00:24:57;;;;;;;14.47;6.70;;;3.10;99.90;;;;;;1918259;74;21057;-77
2021/10/24 00:27:23;;;;;;;11.00;6.03;;;3.10;99.90;;;;;;1920488;74;21068;-76
2021/10/24 00:29:49;;;;;;;6.97;5.62;;;3.00;99.90;;;;;;1919601;74;21076;-77
2021/10/24 00:32:15;;;;;;;11.30;6.53;;;3.10;99.90;;;;;;1915599;74;21134;-77
2021/10/24 00:37:27;;;;;;;10.40;6.95;;;3.10;99.90;;;;;;1928252;73;21089;-76
2021/10/24 00:39:53;;;;;;;8.90;6.50;;;3.10;99.90;;;;;;1890839;74;21289;-77
2021/10/24 00:42:19;;;;;;;9.68;6.67;;;3.10;99.90;;;;;;1900294;74;21498;-76
2021/10/24 00:44:45;;;;;;;10.13;6.55;;;3.10;99.90;;;;;;1896436;75;21445;-77
2021/10/24 00:47:12;;;;;;;13.40;6.42;;;3.00;99.90;;;;;;1902306;74;21515;-76
2021/10/24 00:49:38;;;;;;;11.22;6.12;;;3.00;99.90;;;;;;1904891;75;21076;-76
2021/10/24 00:52:04;;;;;;;9.65;6.50;;;3.00;99.90;;;;;;1883491;74;21178;-76
2021/10/24 00:54:30;;;;;;;8.15;5.90;;;2.90;99.90;;;;;;1891494;74;21088;-76
2021/10/24 00:56:56;;;;;;;9.68;6.62;;;2.90;99.90;;;;;;1971971;71;21426;-77
2021/10/24 00:59:22;;;;;;;11.50;6.83;;;2.90;99.90;;;;;;1961987;72;21523;-76
2021/10/24 01:01:48;;;;;;;11.25;6.53;;;2.80;99.90;;;;;;1966511;71;21473;-76
2021/10/24 01:04:14;;;;;;;7.67;6.10;;;2.90;99.90;;;;;;1965991;72;21049;-76
2021/10/24 01:06:41;;;;;;;8.40;6.20;;;2.80;99.90;;;;;;1973979;71;21057;-75
2021/10/24 01:09:07;;;;;;;12.23;7.00;;;2.80;99.90;;;;;;1964192;71;21034;-75
2021/10/24 01:11:33;;;;;;;11.95;6.22;;;2.80;99.90;;;;;;1973575;71;21179;-74
2021/10/24 01:13:59;;;;;;;10.20;6.10;;;2.80;99.90;;;;;;1954482;72;21054;-74
2021/10/24 01:16:25;;;;;;;12.95;7.47;;;2.80;99.90;;;;;;1954040;72;21294;-75
2021/10/24 01:18:52;;;;;;;10.23;6.33;;;2.70;99.90;;;;;;1969582;72;21119;-75
2021/10/24 01:21:18;;;;;;;10.28;6.55;;;2.80;99.90;;;;;;1962994;72;21132;-75
2021/10/24 01:23:44;;;;;;;10.00;7.53;;;2.70;99.90;;;;;;1966735;71;21144;-75
2021/10/24 01:26:10;;;;;;;11.55;7.22;;;2.70;99.90;;;;;;1967681;71;21120;-75
2021/10/24 01:28:36;;;;;;;12.55;6.67;;;2.80;99.90;;;;;;1971897;72;21039;-76
2021/10/24 01:31:02;;;;;;;10.15;7.20;;;2.70;99.90;;;;;;1954354;72;21130;-75
2021/10/24 01:33:28;;;;;;;14.47;6.20;;;2.60;99.90;;;;;;1960164;71;21151;-75
2021/10/24 01:35:55;;;;;;;11.40;5.97;;;2.70;99.90;;;;;;1959311;72;21139;-75
2021/10/24 01:38:22;;;;;;;12.25;6.17;;;2.70;99.90;;;;;;1965552;71;21066;-75
2021/10/24 01:40:48;;;;;;;13.75;6.50;;;2.70;99.90;;;;;;1973857;72;21246;-73
2021/10/24 01:43:14;;;;;;;12.37;6.97;;;2.70;99.90;;;;;;1963964;72;21159;-75
2021/10/24 01:45:40;;;;;;;8.70;6.28;;;2.80;99.90;;;;;;1983423;72;21123;-76
2021/10/24 01:48:06;;;;;;;9.48;6.40;;;2.80;99.90;;;;;;1981129;71;21038;-75
2021/10/24 01:50:32;;;;;;;10.43;6.60;;;2.60;99.90;;;;;;1969932;71;21065;-76
2021/10/24 01:52:59;;;;;;;11.25;6.22;;;2.70;99.90;;;;;;1952712;72;21497;-75
2021/10/24 01:55:25;;;;;;;14.03;6.87;;;2.70;99.90;;;;;;1953138;72;21549;-76
2021/10/24 01:57:51;;;;;;;13.62;5.95;;;2.70;99.90;;;;;;1956124;72;21470;-76
2021/10/24 02:00:17;;;;;;;7.03;5.55;;;2.60;99.90;;;;;;1968001;72;21143;-75
2021/10/24 02:02:43;;;;;;;11.05;6.35;;;2.70;99.90;;;;;;1945744;72;21039;-76
2021/10/24 02:05:09;;;;;;;11.33;6.08;;;2.70;99.90;;;;;;1979714;71;21143;-76
2021/10/24 02:07:35;;;;;;;11.43;6.00;;;2.60;99.90;;;;;;1980160;72;21045;-73
2021/10/24 02:10:01;;;;;;;10.70;5.47;;;2.60;99.90;;;;;;1958414;72;21139;-76
2021/10/24 02:12:27;;;;;;;12.03;5.85;;;2.60;99.90;;;;;;1978272;71;21050;-73
2021/10/24 02:14:54;;;;;;;8.15;5.58;;;2.50;99.90;;;;;;1956343;72;21113;-73
2021/10/24 02:17:20;;;;;;;10.58;5.62;;;2.60;99.90;;;;;;1954092;72;21226;-75
2021/10/24 02:19:47;;;;;;;10.45;5.42;;;2.50;99.90;;;;;;1964357;71;21069;-77
2021/10/24 02:22:14;;;;;;;9.95;5.90;;;2.50;99.90;;;;;;1981039;71;21066;-76
2021/10/24 02:24:42;;;;;;;7.55;5.67;;;2.50;99.90;;;;;;1966917;72;21125;-76
2021/10/24 02:27:09;;;;;;;8.78;5.75;;;2.50;99.90;;;;;;1941882;72;21055;-76
2021/10/24 02:29:35;;;;;;;16.60;6.10;;;2.50;99.90;;;;;;1959748;72;21035;-77
2021/10/24 02:32:01;;;;;;;8.13;5.37;;;2.50;99.90;;;;;;1969701;72;21066;-79
2021/10/24 02:34:28;;;;;;;8.18;5.28;;;2.50;99.90;;;;;;1954446;72;21050;-77
2021/10/24 02:36:54;;;;;;;8.50;5.87;;;2.40;99.90;;;;;;1961908;71;21181;-78
2021/10/24 02:39:20;;;;;;;7.97;5.40;;;2.40;99.90;;;;;;1958538;71;21112;-78
2021/10/24 02:41:46;;;;;;;8.98;5.62;;;2.30;99.90;;;;;;1975050;72;21128;-78
2021/10/24 02:44:13;;;;;;;10.43;5.67;;;2.30;99.90;;;;;;1954277;72;21062;-78
2021/10/24 02:46:39;;;;;;;7.60;5.90;;;2.30;99.90;;;;;;1966961;71;21108;-78
2021/10/24 02:49:05;;;;;;;6.90;5.47;;;2.30;99.90;;;;;;1968323;71;21054;-78
2021/10/24 02:51:33;;;;;;;11.20;5.20;;;2.30;99.90;;;;;;1980187;71;21053;-78
2021/10/24 02:53:59;;;;;;;7.87;5.53;;;2.30;99.90;;;;;;1963941;72;21143;-78
2021/10/24 02:56:25;;;;;;;8.60;6.00;;;2.30;99.90;;;;;;1966767;72;21035;-78
2021/10/24 02:58:51;;;;;;;11.50;5.37;;;2.20;99.90;;;;;;1976104;72;21069;-79
2021/10/24 03:01:17;;;;;;;7.83;5.17;;;2.30;99.90;;;;;;1985233;72;21203;-78
2021/10/24 03:03:43;;;;;;;7.65;5.60;;;2.30;99.90;;;;;;1961561;72;21540;-78
2021/10/24 03:06:09;;;;;;;10.65;5.45;;;2.20;99.90;;;;;;1959966;72;21579;-77
2021/10/24 03:08:35;;;;;;;14.00;5.72;;;2.30;99.90;;;;;;1966034;72;21477;-79
2021/10/24 03:11:01;;;;;;;6.28;4.60;;;2.30;99.90;;;;;;1969911;71;21104;-79
2021/10/24 03:13:28;;;;;;;10.40;5.03;;;2.30;99.90;;;;;;1959126;72;21026;-78
2021/10/24 03:15:54;;;;;;;7.97;5.30;;;2.40;99.90;;;;;;1958366;71;21042;-78
2021/10/24 03:18:20;;;;;;;11.18;5.28;;;2.40;99.90;;;;;;1946047;72;21074;-78
2021/10/24 03:20:46;;;;;;;7.97;5.67;;;2.30;99.90;;;;;;1968068;71;21131;-76
2021/10/24 03:23:12;;;;;;;12.45;5.58;;;2.40;99.90;;;;;;1969904;71;21053;-79
2021/10/24 03:25:38;;;;;;;6.92;5.20;;;2.30;99.90;;;;;;1965295;71;21213;-78
2021/10/24 03:28:06;;;;;;;9.83;5.53;;;2.30;99.90;;;;;;1950966;71;21044;-78
2021/10/24 03:30:32;;;;;;;8.00;5.00;;;2.20;99.90;;;;;;1943295;72;21128;-78
2021/10/24 03:32:58;;;;;;;12.68;5.25;;;2.20;99.90;;;;;;1967812;72;21127;-79
2021/10/24 03:35:24;;;;;;;9.40;5.35;;;2.30;99.90;;;;;;1970184;71;21131;-80
2021/10/24 03:37:50;;;;;;;6.25;5.10;;;2.10;99.90;;;;;;1962592;72;21147;-78
2021/10/24 03:40:16;;;;;;;10.70;4.80;;;2.20;99.90;;;;;;1962002;72;21051;-78
2021/10/24 03:42:42;;;;;;;8.10;5.22;;;2.20;99.90;;;;;;1975722;71;21124;-79
2021/10/24 03:45:09;;;;;;;10.75;4.97;;;2.10;99.90;;;;;;1964636;70;21132;-78
2021/10/24 03:47:35;;;;;;;8.13;4.97;;;2.10;99.90;;;;;;1971547;71;21524;-79
2021/10/24 03:50:01;;;;;;;9.73;5.00;;;2.10;99.90;;;;;;1947489;72;21061;-79
2021/10/24 03:52:27;;;;;;;8.63;4.97;;;2.00;99.90;;;;;;1980977;71;21027;-78
2021/10/24 03:54:53;;;;;;;7.85;5.12;;;2.10;99.90;;;;;;1956978;72;21031;-78
2021/10/24 03:57:20;;;;;;;11.93;5.12;;;2.10;99.90;;;;;;1977387;72;21054;-79
2021/10/24 03:59:46;;;;;;;9.58;5.22;;;2.00;99.90;;;;;;1961978;72;21168;-78
2021/10/24 04:02:12;;;;;;;10.05;4.90;;;2.00;99.90;;;;;;1950785;70;21502;-80
2021/10/24 04:04:38;;;;;;;8.30;4.70;;;2.00;99.90;;;;;;1971686;71;21462;-80
2021/10/24 04:07:04;;;;;;;7.28;4.15;;;2.00;99.90;;;;;;1972925;72;21054;-79
2021/10/24 04:09:30;;;;;;;7.90;4.72;;;2.00;99.90;;;;;;1976435;71;21152;-76
2021/10/24 04:11:56;;;;;;;12.28;5.33;;;1.90;99.90;;;;;;1972397;71;21062;-76
2021/10/24 04:14:25;;;;;;;7.30;4.87;;;1.90;99.90;;;;;;1972850;71;21063;-77
2021/10/24 04:16:50;;;;;;;6.72;4.10;;;1.90;99.90;;;;;;1956052;72;21103;-77
2021/10/24 04:19:16;;;;;;;8.05;5.42;;;1.90;99.90;;;;;;1964917;71;21104;-77
2021/10/24 04:21:43;;;;;;;9.85;5.62;;;1.90;99.90;;;;;;1967403;71;21043;-76
2021/10/24 04:24:09;;;;;;;6.70;4.72;;;1.80;99.90;;;;;;1972227;71;21034;-76
2021/10/24 04:26:35;;;;;;;7.40;4.47;;;1.80;99.90;;;;;;1955403;72;21155;-78
2021/10/24 04:29:01;;;;;;;8.55;4.55;;;1.80;99.90;;;;;;1978526;71;21165;-75
2021/10/24 04:31:28;;;;;;;9.70;4.97;;;1.70;99.90;;;;;;1957660;72;21067;-76
2021/10/24 04:33:54;;;;;;;7.15;5.12;;;1.70;99.90;;;;;;1973960;71;21049;-76
2021/10/24 04:36:20;;;;;;;7.83;4.45;;;1.70;99.90;;;;;;1971038;72;21466;-75
2021/10/24 04:38:46;;;;;;;6.67;4.72;;;1.70;99.90;;;;;;1964926;72;21523;-76
2021/10/24 04:41:12;;;;;;;6.28;4.40;;;1.70;99.90;;;;;;1936143;72;21457;-75
2021/10/24 04:43:38;;;;;;;7.15;4.40;;;1.60;99.90;;;;;;1972510;72;21058;-75
2021/10/24 04:46:04;;;;;;;7.12;4.28;;;1.60;99.90;;;;;;1978053;71;21106;-79
2021/10/24 04:48:30;;;;;;;6.58;3.87;;;1.60;99.90;;;;;;1964640;72;21122;-77
2021/10/24 04:50:57;;;;;;;6.50;4.05;;;1.60;99.90;;;;;;1972057;72;21046;-78
2021/10/24 04:53:23;;;;;;;6.20;3.92;;;1.50;99.90;;;;;;1955305;72;21147;-78
2021/10/24 04:55:49;;;;;;;5.22;4.03;;;1.50;99.90;;;;;;1958218;72;21050;-78
2021/10/24 04:58:15;;;;;;;7.97;4.33;;;1.50;99.90;;;;;;1981346;72;21505;-79
2021/10/24 05:00:41;;;;;;;6.12;3.55;;;1.50;99.90;;;;;;1957758;72;21598;-77
2021/10/24 05:03:08;;;;;;;11.97;4.53;;;1.50;99.90;;;;;;1982750;72;21551;-76
2021/10/24 05:05:34;;;;;;;6.00;3.95;;;1.50;99.90;;;;;;1957655;72;21044;-76
2021/10/24 05:08:00;;;;;;;6.50;4.08;;;1.40;99.90;;;;;;1956512;72;21116;-74
2021/10/24 05:10:26;;;;;;;5.78;3.55;;;1.40;99.90;;;;;;1977874;71;21059;-76
2021/10/24 05:12:52;;;;;;;9.60;4.15;;;1.40;99.90;;;;;;1964806;72;21058;-76
2021/10/24 05:15:19;;;;;;;5.67;4.20;;;1.30;99.90;;;;;;1965387;72;21207;-77
2021/10/24 05:17:45;;;;;;;6.30;4.33;;;1.30;99.90;;;;;;1951763;72;21505;-76
2021/10/24 05:20:11;;;;;;;5.33;3.83;;;1.30;99.90;;;;;;1959361;72;21041;-75
2021/10/24 05:22:37;;;;;;;6.78;3.83;;;1.30;99.90;;;;;;1969001;72;21053;-76
2021/10/24 05:25:03;;;;;;;4.78;3.95;;;1.20;99.90;;;;;;1955874;72;21153;-75
2021/10/24 05:27:30;;;;;;;7.47;3.45;;;1.30;99.90;;;;;;1976833;72;21071;-75
2021/10/24 05:29:56;;;;;;;6.33;4.08;;;1.30;99.90;;;;;;1985978;70;21035;-76
2021/10/24 05:32:22;;;;;;;8.80;4.20;;;1.30;99.90;;;;;;1982078;72;21108;-76
2021/10/24 05:34:48;;;;;;;8.63;5.12;;;1.30;99.90;;;;;;1978023;71;21062;-75
2021/10/24 05:37:14;;;;;;;9.88;5.58;;;1.20;99.90;;;;;;1955290;72;21090;-76
2021/10/24 05:39:41;;;;;;;12.10;5.37;;;1.20;99.90;;;;;;1966932;72;21116;-76
2021/10/24 05:42:07;;;;;;;10.28;6.60;;;1.20;99.90;;;;;;1955032;72;21070;-76
2021/10/24 05:44:33;;;;;;;12.43;6.50;;;1.20;99.90;;;;;;1968977;70;21143;-74
2021/10/24 05:46:59;;;;;;;9.98;6.53;;;1.10;99.90;;;;;;1966899;72;21077;-75
2021/10/24 05:49:25;;;;;;;7.70;5.45;;;1.10;99.90;;;;;;1978419;71;21473;-75
2021/10/24 05:51:53;;;;;;;9.98;5.95;;;1.10;99.90;;;;;;1956472;72;21482;-76
2021/10/24 05:54:20;;;;;;;12.88;6.60;;;1.10;99.90;;;;;;1964162;71;21147;-76
2021/10/24 05:56:46;;;;;;;11.33;6.97;;;1.10;99.90;;;;;;1963487;72;21043;-75
2021/10/24 05:59:12;;;;;;;9.83;6.75;;;1.10;99.90;;;;;;1958347;72;21054;-75
2021/10/24 06:01:38;;;;;;;9.05;6.67;;;1.00;99.90;;;;;;1959905;72;21070;-75
2021/10/24 06:04:04;;;;;;;11.08;6.70;;;1.10;99.90;;;;;;1969962;72;21177;-75
2021/10/24 06:06:30;;;;;;;9.48;6.58;;;1.10;99.90;;;;;;1957925;71;21052;-75
2021/10/24 06:08:59;;;;;;;9.25;5.62;;;1.10;99.90;;;;;;1981514;71;21143;-76
2021/10/24 06:13:52;;;;;;;9.10;5.37;;;1.10;99.90;;;;;;1976072;72;21501;-75
2021/10/24 06:16:18;;;;;;;8.10;5.42;;;1.10;99.90;;;;;;1976174;71;21096;-76
2021/10/24 06:18:44;;;;;;;7.40;5.58;;;1.10;99.90;;;;;;1985118;72;21564;-75
2021/10/24 06:21:10;;;;;;;9.55;5.28;;;1.10;99.90;;;;;;1961843;72;21062;-76
2021/10/24 06:23:36;;;;;;;7.05;5.15;;;1.10;99.90;;;;;;1958164;72;21120;-75
2021/10/24 06:26:02;;;;;;;7.83;5.10;;;1.10;99.90;;;;;;1970175;71;21131;-76
2021/10/24 06:28:29;;;;;;;10.28;5.30;;;1.10;99.90;;;;;;1963548;71;21123;-77
2021/10/24 06:30:55;;;;;;;8.00;5.08;;;1.10;99.90;;;;;;1968267;71;21030;-77
2021/10/24 06:33:21;;;;;;;7.33;4.95;;;1.20;99.90;;;;;;1958716;71;21014;-77
2021/10/24 06:35:47;;;;;;;7.40;4.85;;;1.30;99.90;;;;;;1971413;72;21062;-78
2021/10/24 06:38:13;;;;;;;11.78;5.00;;;1.30;99.90;;;;;;1969897;71;21124;-75
2021/10/24 06:40:40;;;;;;;6.58;4.47;;;1.30;99.90;;;;;;1949829;72;21140;-79
2021/10/24 06:43:06;;;;;;;7.55;5.00;;;1.30;99.90;;;;;;1973635;71;21127;-74
2021/10/24 06:45:32;;;;;;;10.50;4.65;;;1.30;99.90;;;;;;1969293;72;21126;-75
2021/10/24 06:47:59;;;;;;;8.15;5.12;;;1.30;99.90;;;;;;1967886;72;21050;-76
2021/10/24 06:50:25;;;;;;;8.38;5.35;;;1.30;99.90;;;;;;1965238;72;21139;-76
2021/10/24 06:52:51;;;;;;;12.05;4.78;;;1.40;99.90;;;;;;1966093;71;21228;-75
2021/10/24 06:55:17;;;;;;;8.83;5.10;;;1.50;99.90;;;;;;1977918;71;21149;-75
2021/10/24 06:57:43;;;;;;;6.70;4.87;;;1.50;99.90;;;;;;1968766;72;21501;-74
2021/10/24 07:00:09;;;;;;;9.93;5.08;;;1.50;99.90;;;;;;1970313;72;21031;-75
2021/10/24 07:02:37;;;;;;;8.35;5.50;;;1.70;99.90;;;;;;1964941;71;21063;-75
2021/10/24 07:05:03;;;;;;;11.60;5.30;;;1.70;99.90;;;;;;1966554;72;21054;-77
2021/10/24 07:07:29;;;;;;;7.15;5.28;;;1.80;99.90;;;;;;1987991;71;21059;-75
2021/10/24 07:09:55;;;;;;;7.28;4.92;;;1.80;99.90;;;;;;1966228;71;21156;-75
2021/10/24 07:12:21;;;;;;;13.28;5.28;;;1.80;99.90;;;;;;1958342;72;21057;-76
2021/10/24 07:14:48;;;;;;;8.08;4.95;;;2.00;99.90;;;;;;1962196;72;21064;-76
2021/10/24 07:17:14;;;;;;;7.72;5.10;;;2.10;99.90;;;;;;1948440;72;21040;-77
2021/10/24 07:19:40;;;;;;;9.10;5.10;;;2.10;99.90;;;;;;1943584;72;21066;-76
2021/10/24 07:22:06;;;;;;;9.53;5.80;;;2.10;99.90;;;;;;1970840;72;21205;-76
2021/10/24 07:24:32;;;;;;;10.48;5.72;;;2.20;99.90;;;;;;1964756;72;21070;-76
2021/10/24 07:26:58;;;;;;;6.55;5.20;;;2.20;99.90;;;;;;1951413;72;21070;-76
2021/10/24 07:29:25;;;;;;;11.70;5.50;;;2.40;99.90;;;;;;1971698;72;21147;-76
2021/10/24 07:31:51;;;;;;;11.90;5.90;;;2.40;99.90;;;;;;1964229;72;21054;-75
2021/10/24 07:34:19;;;;;;;9.10;5.83;;;2.50;99.90;;;;;;1964417;72;21132;-74
2021/10/24 07:36:45;;;;;;;9.45;6.10;;;2.50;99.90;;;;;;1976599;72;21118;-75
2021/10/24 07:39:11;;;;;;;9.63;6.17;;;2.60;99.90;;;;;;1987533;71;21034;-76
2021/10/24 07:41:37;;;;;;;12.30;6.25;;;2.60;99.90;;;;;;1953420;71;21057;-77
2021/10/24 07:44:06;;;;;;;10.75;6.12;;;2.70;99.90;;;;;;1983443;72;21065;-79
2021/10/24 07:46:31;;;;;;;15.18;6.50;;;2.80;99.90;;;;;;1970364;72;21083;-79
2021/10/24 07:48:57;;;;;;;12.73;6.62;;;2.90;99.90;;;;;;1984499;72;21058;-80
2021/10/24 07:51:23;;;;;;;12.13;5.92;;;3.00;99.90;;;;;;1968635;71;21112;-78
2021/10/24 07:53:50;;;;;;;7.17;5.28;;;3.10;99.90;;;;;;1978407;71;21035;-77
2021/10/24 07:56:16;;;;;;;16.93;5.72;;;3.30;99.90;;;;;;1973777;72;21513;-77
2021/10/24 07:58:42;;;;;;;9.18;5.85;;;3.40;99.90;;;;;;1978679;71;21649;-77
2021/10/24 08:01:10;;;;;;;12.25;6.55;;;3.50;99.90;;;;;;1961576;72;21603;-77
2021/10/24 08:03:36;;;;;;;8.73;5.95;;;3.60;99.90;;;;;;1972645;71;21464;-77
2021/10/24 08:06:02;;;;;;;12.28;5.97;;;3.80;99.90;;;;;;1971827;72;21128;-77
2021/10/24 08:08:29;;;;;;;11.48;5.80;;;3.90;99.90;;;;;;1965261;72;21063;-77
2021/10/24 08:10:55;;;;;;;16.77;9.13;;;4.10;99.90;;;;;;1967990;72;21554;-74
2021/10/24 08:13:21;;;;;;;16.82;9.45;;;4.40;99.90;;;;;;1953870;71;21149;-75
2021/10/24 08:15:49;;;;;;;10.08;5.37;;;4.50;99.90;;;;;;1962790;71;21062;-75
2021/10/24 08:18:15;;;;;;;12.25;5.55;;;4.70;99.90;;;;;;1965970;72;21098;-74
2021/10/24 08:20:44;;;;;;;11.00;5.72;;;4.90;99.90;;;;;;1978332;71;21042;-75
2021/10/24 08:23:09;;;;;;;8.33;4.65;;;5.10;99.90;;;;;;1975534;71;21185;-76
2021/10/24 08:25:35;;;;;;;7.47;4.80;;;5.30;99.90;;;;;;1956671;72;21460;-75
2021/10/24 08:28:02;;;;;;;12.35;5.70;;;5.50;99.90;;;;;;1972367;71;21445;-76
2021/10/24 08:30:29;;;;;;;10.08;5.35;;;5.80;99.90;;;;;;1966066;72;21074;-75
2021/10/24 08:32:55;;;;;;;7.67;4.80;;;6.00;99.90;;;;;;1966510;71;21086;-75
2021/10/24 08:35:22;;;;;;;13.05;4.65;;;6.30;99.90;;;;;;1958107;71;21603;-75
2021/10/24 08:37:49;;;;;;;5.53;4.10;;;6.60;99.90;;;;;;1957462;71;21039;-77
2021/10/24 08:40:15;;;;;;;5.28;4.10;;;6.70;99.90;;;;;;1963837;71;21054;-74
2021/10/24 08:42:42;;;;;;;9.45;5.22;;;7.00;99.90;;;;;;1958123;72;21066;-76
2021/10/24 08:45:10;;;;;;;9.20;4.37;;;7.40;99.90;;;;;;1978023;71;21312;-76
2021/10/24 08:47:36;;;;;;;5.45;4.10;;;7.90;99.90;;;;;;1947108;70;21129;-75
2021/10/24 08:50:02;;;;;;;8.03;4.95;;;7.80;99.90;;;;;;1957307;72;21062;-75
2021/10/24 08:52:28;;;;;;;8.75;4.55;;;7.70;99.90;;;;;;1967409;72;21032;-76
2021/10/24 08:54:54;;;;;;;8.30;5.33;;;8.00;99.90;;;;;;1957041;72;21140;-76
2021/10/24 08:57:20;;;;;;;9.03;4.67;;;8.50;99.90;;;;;;1960039;72;21062;-76
2021/10/24 08:59:46;;;;;;;9.38;4.12;;;8.70;99.90;;;;;;1965294;72;21202;-76
2021/10/24 09:02:12;;;;;;;6.05;4.15;;;8.90;99.90;;;;;;1955874;72;21054;-78
2021/10/24 09:04:39;;;;;;;8.88;4.15;;;9.10;99.90;;;;;;1955262;72;21066;-76
2021/10/24 09:07:05;;;;;;;9.90;4.67;;;9.40;99.90;;;;;;1971514;72;21075;-76
2021/10/24 09:09:31;;;;;;;8.83;4.30;;;9.40;99.90;;;;;;1964978;72;21477;-73
2021/10/24 09:11:58;;;;;;;12.05;4.70;;;9.70;99.90;;;;;;1988386;71;21074;-76
2021/10/24 09:14:24;;;;;;;8.53;4.33;;;9.80;99.90;;;;;;1962496;71;21172;-74
2021/10/24 09:16:50;;;;;;;7.75;4.05;;;10.40;99.90;;;;;;1971963;72;21066;-76
2021/10/24 09:19:16;;;;;;;8.48;3.87;;;10.50;99.90;;;;;;1977608;72;21074;-77
2021/10/24 09:21:42;;;;;;;4.83;3.58;;;10.90;99.90;;;;;;1956932;72;21120;-73
2021/10/24 09:24:10;;;;;;;8.65;4.30;;;10.90;99.90;;;;;;1958730;72;21114;-74
2021/10/24 09:26:36;;;;;;;6.83;3.85;;;10.50;99.90;;;;;;1943464;72;21072;-73
2021/10/24 09:29:02;;;;;;;9.78;4.45;;;10.20;99.90;;;;;;1979101;71;21051;-73
2021/10/24 09:31:29;;;;;;;6.78;3.70;;;10.60;99.90;;;;;;1940707;72;21121;-79
2021/10/24 09:33:56;;;;;;;6.58;4.15;;;10.90;99.90;;;;;;1948315;71;21144;-82
2021/10/24 09:36:23;;;;;;;6.33;3.80;;;11.00;99.90;;;;;;1966019;72;21077;-75
2021/10/24 09:38:49;;;;;;;6.53;3.65;;;11.10;99.90;;;;;;1950395;72;21570;-76
2021/10/24 09:41:15;;;;;;;5.75;3.60;;;11.20;99.90;;;;;;1959775;72;21493;-74
2021/10/24 09:43:43;;;;;;;5.67;3.87;;;11.40;99.90;;;;;;1971019;72;21431;-81
2021/10/24 09:46:09;;;;;;;5.60;3.45;;;11.20;99.90;;;;;;1983587;71;21131;-74
2021/10/24 09:48:35;;;;;;;5.28;3.27;;;11.40;99.90;;;;;;1973472;71;21093;-74
2021/10/24 09:51:03;;;;;;;4.60;3.33;;;11.80;99.90;;;;;;1960268;72;21070;-73
2021/10/24 09:53:29;;;;;;;6.08;3.33;;;11.90;99.90;;;;;;1970014;72;21077;-73
2021/10/24 09:55:55;;;;;;;4.87;3.37;;;11.90;99.90;;;;;;1955630;70;21034;-73
2021/10/24 09:58:21;;;;;;;7.17;3.45;;;12.10;99.90;;;;;;1967265;72;21128;-73
2021/10/24 10:00:47;;;;;;;7.35;3.45;;;12.80;99.90;;;;;;1961344;72;21188;-73
2021/10/24 10:03:13;;;;;;;8.50;3.30;;;12.70;99.90;;;;;;1964543;71;21116;-76
2021/10/24 10:05:39;;;;;;;4.00;3.17;;;13.30;99.90;;;;;;1962641;72;21136;-76
2021/10/24 10:08:06;;;;;;;3.62;3.10;;;13.70;99.90;;;;;;1973793;71;21050;-76
2021/10/24 10:10:32;;;;;;;9.60;3.62;;;13.30;99.90;;;;;;1970428;70;21057;-76
2021/10/24 10:12:58;;;;;;;5.72;3.45;;;13.10;99.90;;;;;;1976400;72;21218;-74
2021/10/24 10:15:24;;;;;;;3.67;2.75;;;13.30;99.90;;;;;;1973822;71;21055;-73
2021/10/24 10:17:50;;;;;;;8.13;2.72;;;13.50;99.90;;;;;;1962454;72;21144;-74
2021/10/24 10:20:16;;;;;;;7.78;3.70;;;13.80;99.90;;;;;;1977174;72;21121;-74
2021/10/24 10:22:42;;;;;;;4.70;3.27;;;13.90;99.90;;;;;;1961697;71;21127;-74
2021/10/24 10:25:09;;;;;;;4.58;2.95;;;13.60;99.90;;;;;;1961154;72;21078;-74
2021/10/24 10:27:35;;;;;;;6.97;3.50;;;13.70;99.90;;;;;;1962090;72;21187;-74
2021/10/24 10:30:02;;;;;;;7.45;3.05;;;14.70;99.90;;;;;;1939807;72;21087;-74
2021/10/24 10:32:28;;;;;;;15.05;3.58;;;14.70;99.90;;;;;;1961512;72;21233;-74
2021/10/24 10:34:54;;;;;;;5.62;3.40;;;15.30;99.90;;;;;;1954054;70;21498;-74
2021/10/24 10:37:26;;;;;;;3.47;2.60;;;15.20;99.90;;;;;;1967149;70;21058;-74
2021/10/24 10:39:52;;;;;;;4.83;2.92;;;15.60;99.90;;;;;;1965786;72;21498;-74
2021/10/24 10:42:19;;;;;;;5.78;2.60;;;15.60;99.90;;;;;;1986436;71;21461;-74
2021/10/24 10:44:45;;;;;;;5.28;3.00;;;16.20;99.90;;;;;;1965040;72;21062;-74
2021/10/24 10:47:11;;;;;;;4.17;2.80;;;16.00;99.90;;;;;;1955463;72;21058;-74
2021/10/24 10:49:37;;;;;;;4.78;2.65;;;16.50;99.90;;;;;;1972420;72;21069;-74
2021/10/24 10:52:03;;;;;;;5.00;2.60;;;16.00;99.90;;;;;;1966080;72;21062;-74
2021/10/24 10:54:29;;;;;;;6.92;2.95;;;16.10;99.90;;;;;;1963730;71;21152;-74
2021/10/24 10:56:56;;;;;;;7.00;3.33;;;15.90;99.90;;;;;;1981775;72;21097;-75
2021/10/24 10:59:25;;;;;;;8.03;3.12;;;15.90;99.90;;;;;;1966942;72;21199;-77
2021/10/24 11:01:51;;;;;;;3.80;2.70;;;16.00;99.90;;;;;;1967132;72;21430;-76
2021/10/24 11:04:17;;;;;;;5.47;2.90;;;16.30;99.90;;;;;;1949810;72;21575;-78
2021/10/24 11:06:43;;;;;;;4.12;2.58;;;16.50;99.90;;;;;;1960194;72;21105;-74
2021/10/24 11:09:09;;;;;;;7.90;3.55;;;16.60;99.90;;;;;;1967139;72;21269;-75
2021/10/24 11:11:36;;;;;;;6.03;3.25;;;17.10;99.90;;;;;;1959426;72;21086;-75
2021/10/24 11:14:02;;;;;;;4.40;2.70;;;17.30;99.90;;;;;;1988491;71;21131;-77
2021/10/24 11:16:28;;;;;;;4.65;2.70;;;16.30;99.90;;;;;;1965956;72;21065;-73
2021/10/24 11:18:54;;;;;;;5.75;3.22;;;16.40;99.90;;;;;;1957421;72;21149;-75
2021/10/24 11:21:20;;;;;;;4.70;3.12;;;15.90;99.90;;;;;;1959743;72;21495;-74
2021/10/24 11:23:47;;;;;;;3.95;3.05;;;15.90;99.90;;;;;;1978247;71;21486;-74
2021/10/24 11:26:13;;;;;;;4.10;2.92;;;16.70;99.90;;;;;;1977799;72;21476;-78
2021/10/24 11:28:39;;;;;;;10.32;3.10;;;16.90;99.90;;;;;;1961322;72;21131;-77
2021/10/24 11:31:07;;;;;;;4.10;3.00;;;16.50;99.90;;;;;;1958232;71;21240;-75
2021/10/24 11:33:33;;;;;;;4.78;2.75;;;17.10;99.90;;;;;;1959665;72;21480;-76
2021/10/24 11:35:59;;;;;;;5.97;2.75;;;17.70;99.90;;;;;;1961023;71;21478;-77
2021/10/24 11:38:26;;;;;;;3.55;2.35;;;17.70;99.90;;;;;;1946433;72;21090;-78
2021/10/24 11:40:52;;;;;;;4.37;2.80;;;18.40;99.90;;;;;;1958595;72;21065;-81
2021/10/24 11:43:18;;;;;;;5.28;2.92;;;18.10;99.90;;;;;;1965086;71;21043;-80
2021/10/24 11:45:44;;;;;;;4.85;2.70;;;18.80;99.90;;;;;;1962141;71;21478;-80
2021/10/24 11:48:10;;;;;;;6.40;3.27;;;18.70;99.90;;;;;;1965490;71;21553;-80
2021/10/24 11:50:37;;;;;;;7.22;2.95;;;18.40;99.90;;;;;;1973853;71;21071;-80
2021/10/24 11:53:03;;;;;;;5.42;2.90;;;18.30;99.90;;;;;;1962658;71;21062;-80
2021/10/24 11:55:29;;;;;;;5.37;2.50;;;17.80;99.90;;;;;;1958505;71;21125;-80
2021/10/24 12:00:39;;;;;;;;;;;18.40;99.90;;;;;;1946038;72;21509;-80
2021/10/24 12:02:56;;;;;;;;;;;19.00;99.90;;;;;;1973335;72;20375;-80
2021/10/24 12:05:22;;;;;;;4.67;2.60;;;18.80;99.90;;;;;;1960815;72;20151;-80
2021/10/24 12:10:34;;;;;;;5.75;2.33;;;19.40;99.90;;;;;;1921418;73;21090;-80
2021/10/24 12:13:02;;;;;;;3.47;2.30;;;20.10;99.90;;;;;;1932918;73;21071;-80
2021/10/24 12:15:28;;;;;;;4.67;2.55;;;20.00;99.90;;;;;;1939780;73;21463;-80
2021/10/24 12:17:54;;;;;;;6.53;2.83;;;19.40;99.90;;;;;;1950554;72;21509;-80
2021/10/24 12:20:20;;;;;;;3.55;2.40;;;19.60;99.90;;;;;;1939120;73;21048;-80
2021/10/24 12:22:46;;;;;;;7.25;2.77;;;19.20;99.90;;;;;;1926388;73;21055;-80
2021/10/24 12:25:14;;;;;;;5.33;2.67;;;18.40;99.90;;;;;;1934544;73;21120;-80
2021/10/24 12:27:43;;;;;;;4.00;2.12;;;17.70;99.90;;;;;;1934997;72;21513;-80
2021/10/24 12:30:08;;;;;;;3.22;2.10;;;18.10;99.90;;;;;;1938051;72;21166;-80
2021/10/24 12:32:35;;;;;;;6.22;2.22;;;18.60;99.90;;;;;;1934856;73;21112;-80
2021/10/24 12:35:01;;;;;;;5.62;2.65;;;19.30;99.90;;;;;;1932434;73;21044;-80
2021/10/24 12:37:27;;;;;;;4.03;2.10;;;19.80;99.90;;;;;;1932108;73;21125;-80
2021/10/24 12:39:53;;;;;;;6.90;3.25;;;19.70;99.90;;;;;;1942527;73;21059;-80
2021/10/24 12:42:20;;;;;;;4.17;2.25;;;19.80;99.90;;;;;;1936065;72;21036;-80
2021/10/24 12:44:47;;;;;;;4.97;2.52;;;20.30;99.90;;;;;;1938547;72;21048;-80
2021/10/24 12:47:15;;;;;;;3.90;2.65;;;19.30;99.90;;;;;;1921397;73;21062;-81
2021/10/24 12:49:41;;;;;;;3.50;2.20;;;19.20;99.90;;;;;;1929200;74;21063;-81
2021/10/24 12:52:07;;;;;;;4.00;2.22;;;20.30;99.90;;;;;;1942183;74;21059;-80
2021/10/24 12:54:33;;;;;;;2.90;2.00;;;20.50;99.90;;;;;;1936030;73;21148;-80